sensor_id;sensor_type;location;lat;lon;timestamp;pressure;altitude;pressure_sealevel;temperature;humidity
54850;BME280;47660;51.334;12.396;2023-06-22T00:02:15;100476.63;;;31.52;60.87
54850;BME280;47660;51.334;12.396;2023-06-22T00:04:43;100473.56;;;31.30;62.08
54850;BME280;47660;51.334;12.396;2023-06-22T00:07:08;100475.72;;;31.28;61.40
54850;BME280;47660;51.334;12.396;2023-06-22T00:09:36;100470.34;;;31.64;61.14
54850;BME280;47660;51.334;12.396;2023-06-22T00:12:04;100462.19;;;31.57;62.46
54850;BME280;47660;51.334;12.396;2023-06-22T00:14:32;100455.13;;;31.49;62.19
54850;BME280;47660;51.334;12.396;2023-06-22T00:16:59;100451.09;;;31.52;62.23
54850;BME280;47660;51.334;12.396;2023-06-22T00:19:29;100459.78;;;31.49;62.14
54850;BME280;47660;51.334;12.396;2023-06-22T00:21:58;100469.00;;;31.24;63.51
54850;BME280;47660;51.334;12.396;2023-06-22T00:24:25;100467.88;;;31.13;63.76
54850;BME280;47660;51.334;12.396;2023-06-22T00:26:50;100458.78;;;31.31;63.91
54850;BME280;47660;51.334;12.396;2023-06-22T00:29:16;100457.84;;;31.37;62.78
54850;BME280;47660;51.334;12.396;2023-06-22T00:31:42;100462.22;;;31.26;62.87
54850;BME280;47660;51.334;12.396;2023-06-22T00:34:08;100456.81;;;31.62;63.10
54850;BME280;47660;51.334;12.396;2023-06-22T00:36:34;100459.53;;;31.50;63.14
54850;BME280;47660;51.334;12.396;2023-06-22T00:39:00;100464.25;;;31.12;64.46
54850;BME280;47660;51.334;12.396;2023-06-22T00:41:25;100455.94;;;30.89;65.16
54850;BME280;47660;51.334;12.396;2023-06-22T00:43:54;100459.28;;;31.40;63.79
54850;BME280;47660;51.334;12.396;2023-06-22T00:46:19;100463.53;;;31.05;65.17
54850;BME280;47660;51.334;12.396;2023-06-22T00:48:45;100460.56;;;31.25;64.35
54850;BME280;47660;51.334;12.396;2023-06-22T00:51:11;100447.44;;;31.27;64.03
54850;BME280;47660;51.334;12.396;2023-06-22T00:53:36;100448.59;;;31.01;65.63
54850;BME280;47660;51.334;12.396;2023-06-22T00:56:03;100448.59;;;31.01;66.40
54850;BME280;47660;51.334;12.396;2023-06-22T00:58:33;100430.78;;;31.53;66.02
54850;BME280;47660;51.334;12.396;2023-06-22T01:00:58;100436.44;;;31.09;65.96
54850;BME280;47660;51.334;12.396;2023-06-22T01:03:25;100446.19;;;30.74;66.96
54850;BME280;47660;51.334;12.396;2023-06-22T01:05:58;100437.06;;;31.96;63.37
54850;BME280;47660;51.334;12.396;2023-06-22T01:09:10;100433.03;;;31.98;63.27
54850;BME280;47660;51.334;12.396;2023-06-22T01:13:58;100446.97;;;31.31;67.38
54850;BME280;47660;51.334;12.396;2023-06-22T01:16:35;100437.69;;;31.44;66.70
54850;BME280;47660;51.334;12.396;2023-06-22T01:19:27;100438.66;;;31.49;66.63
54850;BME280;47660;51.334;12.396;2023-06-22T01:21:58;100452.75;;;31.53;66.38
54850;BME280;47660;51.334;12.396;2023-06-22T01:24:30;100437.88;;;31.30;67.64
54850;BME280;47660;51.334;12.396;2023-06-22T01:27:14;100448.88;;;31.42;67.14
54850;BME280;47660;51.334;12.396;2023-06-22T01:29:52;100449.28;;;30.96;69.43
54850;BME280;47660;51.334;12.396;2023-06-22T01:32:28;100461.72;;;30.99;68.38
54850;BME280;47660;51.334;12.396;2023-06-22T01:34:56;100456.69;;;30.96;68.24
54850;BME280;47660;51.334;12.396;2023-06-22T01:37:24;100455.41;;;30.80;68.28
54850;BME280;47660;51.334;12.396;2023-06-22T01:39:50;100452.22;;;30.64;69.32
54850;BME280;47660;51.334;12.396;2023-06-22T01:42:19;100449.78;;;30.75;68.75
54850;BME280;47660;51.334;12.396;2023-06-22T01:44:45;100456.56;;;30.47;69.89
54850;BME280;47660;51.334;12.396;2023-06-22T01:47:11;100439.88;;;30.74;68.40
54850;BME280;47660;51.334;12.396;2023-06-22T01:49:40;100448.44;;;30.40;69.80
54850;BME280;47660;51.334;12.396;2023-06-22T01:52:08;100447.91;;;30.31;69.76
54850;BME280;47660;51.334;12.396;2023-06-22T01:54:34;100445.41;;;30.48;69.26
54850;BME280;47660;51.334;12.396;2023-06-22T01:56:59;100451.44;;;30.57;68.72
54850;BME280;47660;51.334;12.396;2023-06-22T02:02:11;100438.41;;;30.52;70.20
54850;BME280;47660;51.334;12.396;2023-06-22T02:05:16;100443.94;;;30.83;68.17
54850;BME280;47660;51.334;12.396;2023-06-22T02:10:23;100455.69;;;29.84;73.24
54850;BME280;47660;51.334;12.396;2023-06-22T02:12:53;100461.63;;;30.31;72.07
54850;BME280;47660;51.334;12.396;2023-06-22T02:15:20;100458.13;;;29.99;72.21
54850;BME280;47660;51.334;12.396;2023-06-22T02:17:49;100460.63;;;30.00;72.79
54850;BME280;47660;51.334;12.396;2023-06-22T02:20:17;100463.56;;;29.67;72.70
54850;BME280;47660;51.334;12.396;2023-06-22T02:22:43;100449.66;;;30.00;70.22
54850;BME280;47660;51.334;12.396;2023-06-22T02:25:08;100450.50;;;29.69;71.72
54850;BME280;47660;51.334;12.396;2023-06-22T02:27:36;100443.59;;;30.17;71.21
54850;BME280;47660;51.334;12.396;2023-06-22T02:30:07;100437.66;;;29.94;71.65
54850;BME280;47660;51.334;12.396;2023-06-22T02:32:36;100440.09;;;30.09;72.10
54850;BME280;47660;51.334;12.396;2023-06-22T02:35:01;100449.47;;;29.38;74.16
54850;BME280;47660;51.334;12.396;2023-06-22T02:37:32;100448.13;;;29.47;74.41
54850;BME280;47660;51.334;12.396;2023-06-22T02:39:58;100446.19;;;29.54;74.50
54850;BME280;47660;51.334;12.396;2023-06-22T02:42:26;100433.78;;;30.09;73.36
54850;BME280;47660;51.334;12.396;2023-06-22T02:44:53;100434.19;;;29.55;74.12
54850;BME280;47660;51.334;12.396;2023-06-22T02:47:19;100437.09;;;29.60;73.89
54850;BME280;47660;51.334;12.396;2023-06-22T02:49:46;100431.38;;;29.30;76.37
54850;BME280;47660;51.334;12.396;2023-06-22T02:52:12;100431.44;;;29.55;75.47
54850;BME280;47660;51.334;12.396;2023-06-22T02:54:38;100432.97;;;29.44;75.77
54850;BME280;47660;51.334;12.396;2023-06-22T02:57:03;100431.22;;;29.57;77.10
54850;BME280;47660;51.334;12.396;2023-06-22T02:59:32;100430.09;;;29.64;79.21
54850;BME280;47660;51.334;12.396;2023-06-22T03:01:57;100432.59;;;28.95;81.11
54850;BME280;47660;51.334;12.396;2023-06-22T03:04:22;100439.22;;;29.19;80.46
54850;BME280;47660;51.334;12.396;2023-06-22T03:06:48;100433.00;;;28.99;81.39
54850;BME280;47660;51.334;12.396;2023-06-22T03:09:16;100432.22;;;28.85;84.30
54850;BME280;47660;51.334;12.396;2023-06-22T03:11:42;100435.63;;;28.80;83.89
54850;BME280;47660;51.334;12.396;2023-06-22T03:14:07;100435.28;;;29.09;82.10
54850;BME280;47660;51.334;12.396;2023-06-22T03:16:33;100435.31;;;29.02;82.98
54850;BME280;47660;51.334;12.396;2023-06-22T03:18:59;100439.75;;;28.96;83.53
54850;BME280;47660;51.334;12.396;2023-06-22T03:21:28;100432.44;;;29.29;84.12
54850;BME280;47660;51.334;12.396;2023-06-22T03:23:54;100433.09;;;28.79;86.09
54850;BME280;47660;51.334;12.396;2023-06-22T03:26:22;100434.13;;;29.23;85.53
54850;BME280;47660;51.334;12.396;2023-06-22T03:28:51;100431.25;;;28.52;87.10
54850;BME280;47660;51.334;12.396;2023-06-22T03:31:21;100434.81;;;28.59;87.45
54850;BME280;47660;51.334;12.396;2023-06-22T03:33:50;100443.25;;;28.51;89.07
54850;BME280;47660;51.334;12.396;2023-06-22T03:36:18;100442.75;;;28.74;88.53
54850;BME280;47660;51.334;12.396;2023-06-22T03:38:51;100447.59;;;28.72;88.46
54850;BME280;47660;51.334;12.396;2023-06-22T03:41:17;100452.69;;;28.55;87.65
54850;BME280;47660;51.334;12.396;2023-06-22T03:43:45;100459.56;;;28.85;87.76
54850;BME280;47660;51.334;12.396;2023-06-22T03:46:11;100467.16;;;28.69;87.15
54850;BME280;47660;51.334;12.396;2023-06-22T03:48:39;100479.75;;;28.90;85.35
54850;BME280;47660;51.334;12.396;2023-06-22T03:51:04;100475.41;;;28.49;87.77
54850;BME280;47660;51.334;12.396;2023-06-22T03:56:15;100480.09;;;28.15;89.84
54850;BME280;47660;51.334;12.396;2023-06-22T03:58:48;100482.16;;;28.60;88.13
54850;BME280;47660;51.334;12.396;2023-06-22T04:01:14;100498.97;;;28.57;87.60
54850;BME280;47660;51.334;12.396;2023-06-22T04:03:41;100507.69;;;29.13;86.31
54850;BME280;47660;51.334;12.396;2023-06-22T04:06:06;100511.91;;;29.09;83.96
54850;BME280;47660;51.334;12.396;2023-06-22T04:08:31;100526.13;;;29.31;82.62
54850;BME280;47660;51.334;12.396;2023-06-22T04:10:57;100532.25;;;29.26;83.30
54850;BME280;47660;51.334;12.396;2023-06-22T04:13:22;100541.31;;;29.20;84.05
54850;BME280;47660;51.334;12.396;2023-06-22T04:15:48;100549.22;;;29.55;80.99
54850;BME280;47660;51.334;12.396;2023-06-22T04:18:13;100548.81;;;28.86;85.51
54850;BME280;47660;51.334;12.396;2023-06-22T04:20:39;100553.28;;;29.32;84.32
54850;BME280;47660;51.334;12.396;2023-06-22T04:23:04;100542.56;;;29.24;83.54
54850;BME280;47660;51.334;12.396;2023-06-22T04:25:30;100548.53;;;29.92;79.04
54850;BME280;47660;51.334;12.396;2023-06-22T04:27:58;100549.28;;;29.74;80.08
54850;BME280;47660;51.334;12.396;2023-06-22T04:30:28;100546.53;;;29.42;82.34
54850;BME280;47660;51.334;12.396;2023-06-22T04:32:54;100536.97;;;29.90;79.80
54850;BME280;47660;51.334;12.396;2023-06-22T04:35:25;100549.41;;;29.54;83.37
54850;BME280;47660;51.334;12.396;2023-06-22T04:37:52;100550.81;;;29.17;84.28
54850;BME280;47660;51.334;12.396;2023-06-22T04:40:21;100545.25;;;29.44;85.25
54850;BME280;47660;51.334;12.396;2023-06-22T04:42:46;100534.47;;;29.49;84.72
54850;BME280;47660;51.334;12.396;2023-06-22T04:45:20;100532.84;;;30.82;79.34
54850;BME280;47660;51.334;12.396;2023-06-22T04:47:46;100535.06;;;30.22;80.35
54850;BME280;47660;51.334;12.396;2023-06-22T04:50:14;100531.03;;;30.00;83.62
54850;BME280;47660;51.334;12.396;2023-06-22T04:52:40;100528.97;;;29.88;83.48
54850;BME280;47660;51.334;12.396;2023-06-22T04:55:06;100530.69;;;28.98;89.95
54850;BME280;47660;51.334;12.396;2023-06-22T04:57:31;100526.78;;;29.97;84.37
54850;BME280;47660;51.334;12.396;2023-06-22T05:00:00;100524.38;;;30.14;84.82
54850;BME280;47660;51.334;12.396;2023-06-22T05:02:26;100516.06;;;29.63;84.97
54850;BME280;47660;51.334;12.396;2023-06-22T05:04:53;100507.09;;;30.39;79.79
54850;BME280;47660;51.334;12.396;2023-06-22T05:07:22;100519.34;;;30.11;82.23
54850;BME280;47660;51.334;12.396;2023-06-22T05:09:50;100526.38;;;30.26;81.84
54850;BME280;47660;51.334;12.396;2023-06-22T05:12:16;100507.84;;;29.96;83.03
54850;BME280;47660;51.334;12.396;2023-06-22T05:14:46;100500.53;;;30.65;78.00
54850;BME280;47660;51.334;12.396;2023-06-22T05:17:11;100494.34;;;30.70;78.54
54850;BME280;47660;51.334;12.396;2023-06-22T05:19:39;100467.50;;;30.91;77.25
54850;BME280;47660;51.334;12.396;2023-06-22T05:22:16;100458.66;;;30.07;82.49
54850;BME280;47660;51.334;12.396;2023-06-22T05:24:42;100464.41;;;31.36;75.48
54850;BME280;47660;51.334;12.396;2023-06-22T05:27:10;100464.81;;;31.03;76.61
54850;BME280;47660;51.334;12.396;2023-06-22T05:29:38;100442.25;;;31.50;74.06
54850;BME280;47660;51.334;12.396;2023-06-22T05:32:07;100425.59;;;30.83;77.60
54850;BME280;47660;51.334;12.396;2023-06-22T05:34:33;100424.00;;;30.57;79.00
54850;BME280;47660;51.334;12.396;2023-06-22T05:37:02;100407.91;;;31.29;77.32
54850;BME280;47660;51.334;12.396;2023-06-22T05:39:27;100395.72;;;30.38;80.30
54850;BME280;47660;51.334;12.396;2023-06-22T05:41:55;100401.44;;;29.35;86.77
54850;BME280;47660;51.334;12.396;2023-06-22T05:44:23;100393.38;;;30.60;82.40
54850;BME280;47660;51.334;12.396;2023-06-22T05:46:49;100402.69;;;30.59;79.72
54850;BME280;47660;51.334;12.396;2023-06-22T05:49:15;100419.66;;;30.87;79.01
54850;BME280;47660;51.334;12.396;2023-06-22T05:51:42;100409.22;;;30.58;81.44
54850;BME280;47660;51.334;12.396;2023-06-22T05:54:07;100401.88;;;30.89;78.17
54850;BME280;47660;51.334;12.396;2023-06-22T05:56:35;100395.47;;;30.39;81.46
54850;BME280;47660;51.334;12.396;2023-06-22T05:59:01;100392.38;;;31.04;76.26
54850;BME280;47660;51.334;12.396;2023-06-22T06:01:26;100392.84;;;31.85;72.26
54850;BME280;47660;51.334;12.396;2023-06-22T06:03:52;100388.13;;;31.62;72.69
54850;BME280;47660;51.334;12.396;2023-06-22T06:06:18;100380.66;;;30.96;76.35
54850;BME280;47660;51.334;12.396;2023-06-22T06:08:49;100387.50;;;30.38;80.59
54850;BME280;47660;51.334;12.396;2023-06-22T06:11:19;100393.34;;;31.40;76.57
54850;BME280;47660;51.334;12.396;2023-06-22T06:13:47;100397.09;;;31.46;76.38
54850;BME280;47660;51.334;12.396;2023-06-22T06:16:12;100403.63;;;32.23;69.72
54850;BME280;47660;51.334;12.396;2023-06-22T06:18:38;100405.41;;;32.05;69.73
54850;BME280;47660;51.334;12.396;2023-06-22T06:21:03;100413.47;;;32.71;65.79
54850;BME280;47660;51.334;12.396;2023-06-22T06:23:29;100410.91;;;32.94;64.20
54850;BME280;47660;51.334;12.396;2023-06-22T06:25:54;100413.75;;;33.28;62.11
54850;BME280;47660;51.334;12.396;2023-06-22T06:28:20;100424.28;;;32.37;63.51
54850;BME280;47660;51.334;12.396;2023-06-22T06:30:45;100418.06;;;32.54;62.63
54850;BME280;47660;51.334;12.396;2023-06-22T06:33:12;100431.69;;;31.77;63.73
54850;BME280;47660;51.334;12.396;2023-06-22T06:35:40;100433.28;;;31.54;64.46
54850;BME280;47660;51.334;12.396;2023-06-22T06:38:06;100434.69;;;32.35;61.68
54850;BME280;47660;51.334;12.396;2023-06-22T06:40:33;100436.50;;;32.18;61.89
54850;BME280;47660;51.334;12.396;2023-06-22T06:42:59;100443.81;;;32.77;59.56
54850;BME280;47660;51.334;12.396;2023-06-22T06:45:24;100438.03;;;31.90;60.66
54850;BME280;47660;51.334;12.396;2023-06-22T06:47:53;100444.88;;;32.99;58.72
54850;BME280;47660;51.334;12.396;2023-06-22T06:50:22;100449.78;;;33.55;57.44
54850;BME280;47660;51.334;12.396;2023-06-22T06:53:05;100442.44;;;32.62;58.77
54850;BME280;47660;51.334;12.396;2023-06-22T06:55:54;100432.69;;;32.83;58.15
54850;BME280;47660;51.334;12.396;2023-06-22T06:58:28;100448.88;;;33.84;56.05
54850;BME280;47660;51.334;12.396;2023-06-22T07:00:53;100440.25;;;33.63;55.40
54850;BME280;47660;51.334;12.396;2023-06-22T07:03:22;100436.19;;;34.56;52.87
54850;BME280;47660;51.334;12.396;2023-06-22T07:05:48;100447.41;;;34.10;53.49
54850;BME280;47660;51.334;12.396;2023-06-22T07:08:16;100442.03;;;33.52;53.74
54850;BME280;47660;51.334;12.396;2023-06-22T07:10:44;100447.38;;;33.01;55.82
54850;BME280;47660;51.334;12.396;2023-06-22T07:13:10;100434.84;;;33.68;53.03
54850;BME280;47660;51.334;12.396;2023-06-22T07:15:35;100439.97;;;33.94;53.80
54850;BME280;47660;51.334;12.396;2023-06-22T07:18:03;100438.91;;;33.48;54.24
54850;BME280;47660;51.334;12.396;2023-06-22T07:20:29;100440.91;;;33.24;55.01
54850;BME280;47660;51.334;12.396;2023-06-22T07:22:54;100442.25;;;32.81;55.05
54850;BME280;47660;51.334;12.396;2023-06-22T07:25:19;100437.94;;;33.26;54.47
54850;BME280;47660;51.334;12.396;2023-06-22T07:27:56;100439.94;;;33.76;53.56
54850;BME280;47660;51.334;12.396;2023-06-22T07:30:22;100441.41;;;32.92;54.19
54850;BME280;47660;51.334;12.396;2023-06-22T07:32:48;100438.69;;;33.50;52.66
54850;BME280;47660;51.334;12.396;2023-06-22T07:35:13;100437.69;;;32.98;54.13
54850;BME280;47660;51.334;12.396;2023-06-22T07:37:41;100434.75;;;33.63;51.60
54850;BME280;47660;51.334;12.396;2023-06-22T07:40:07;100424.84;;;34.35;50.75
54850;BME280;47660;51.334;12.396;2023-06-22T07:42:33;100432.09;;;34.02;51.61
54850;BME280;47660;51.334;12.396;2023-06-22T07:45:00;100425.94;;;35.23;48.80
54850;BME280;47660;51.334;12.396;2023-06-22T07:47:26;100438.91;;;33.19;53.39
54850;BME280;47660;51.334;12.396;2023-06-22T07:49:58;100428.78;;;34.22;51.58
54850;BME280;47660;51.334;12.396;2023-06-22T07:52:27;100421.50;;;34.50;50.21
54850;BME280;47660;51.334;12.396;2023-06-22T07:54:52;100438.00;;;33.43;52.28
54850;BME280;47660;51.334;12.396;2023-06-22T07:57:20;100429.81;;;33.65;52.71
54850;BME280;47660;51.334;12.396;2023-06-22T07:59:46;100431.75;;;34.16;51.31
54850;BME280;47660;51.334;12.396;2023-06-22T08:02:11;100423.59;;;34.65;49.61
54850;BME280;47660;51.334;12.396;2023-06-22T08:04:39;100428.09;;;34.72;49.20
54850;BME280;47660;51.334;12.396;2023-06-22T08:07:06;100423.63;;;35.15;48.12
54850;BME280;47660;51.334;12.396;2023-06-22T08:09:32;100415.22;;;35.60;47.76
54850;BME280;47660;51.334;12.396;2023-06-22T08:11:58;100409.56;;;34.28;49.78
54850;BME280;47660;51.334;12.396;2023-06-22T08:14:38;100404.75;;;35.07;49.09
54850;BME280;47660;51.334;12.396;2023-06-22T08:17:04;100404.09;;;34.50;51.42
54850;BME280;47660;51.334;12.396;2023-06-22T08:19:32;100405.09;;;34.04;50.53
54850;BME280;47660;51.334;12.396;2023-06-22T08:22:00;100407.19;;;33.80;53.25
54850;BME280;47660;51.334;12.396;2023-06-22T08:24:26;100401.66;;;34.76;50.05
54850;BME280;47660;51.334;12.396;2023-06-22T08:26:55;100393.69;;;34.57;48.81
54850;BME280;47660;51.334;12.396;2023-06-22T08:29:23;100404.88;;;34.45;49.80
54850;BME280;47660;51.334;12.396;2023-06-22T08:31:51;100395.03;;;34.77;49.40
54850;BME280;47660;51.334;12.396;2023-06-22T08:34:17;100400.22;;;35.50;46.75
54850;BME280;47660;51.334;12.396;2023-06-22T08:36:49;100397.69;;;36.19;44.83
54850;BME280;47660;51.334;12.396;2023-06-22T08:39:20;100401.25;;;35.12;47.96
54850;BME280;47660;51.334;12.396;2023-06-22T08:41:50;100397.19;;;34.30;48.72
54850;BME280;47660;51.334;12.396;2023-06-22T08:47:00;100394.88;;;35.11;46.78
54850;BME280;47660;51.334;12.396;2023-06-22T08:49:25;100396.84;;;34.93;47.46
54850;BME280;47660;51.334;12.396;2023-06-22T08:51:57;100393.88;;;35.22;46.05
54850;BME280;47660;51.334;12.396;2023-06-22T08:54:26;100388.34;;;35.50;44.86
54850;BME280;47660;51.334;12.396;2023-06-22T08:56:52;100382.25;;;35.20;45.46
54850;BME280;47660;51.334;12.396;2023-06-22T08:59:20;100388.88;;;35.19;46.08
54850;BME280;47660;51.334;12.396;2023-06-22T09:01:56;100396.34;;;35.51;46.09
54850;BME280;47660;51.334;12.396;2023-06-22T09:04:27;100392.03;;;35.61;44.62
54850;BME280;47660;51.334;12.396;2023-06-22T09:09:57;100375.22;;;36.69;42.65
54850;BME280;47660;51.334;12.396;2023-06-22T09:12:32;100381.28;;;36.07;42.39
54850;BME280;47660;51.334;12.396;2023-06-22T09:15:21;100369.66;;;36.59;41.63
54850;BME280;47660;51.334;12.396;2023-06-22T09:17:52;100378.88;;;35.78;41.93
54850;BME280;47660;51.334;12.396;2023-06-22T09:20:28;100367.03;;;37.26;40.34
54850;BME280;47660;51.334;12.396;2023-06-22T09:25:45;100359.53;;;36.26;42.29
54850;BME280;47660;51.334;12.396;2023-06-22T09:28:13;100358.56;;;35.57;42.66
54850;BME280;47660;51.334;12.396;2023-06-22T09:30:44;100353.94;;;36.95;40.66
54850;BME280;47660;51.334;12.396;2023-06-22T09:33:16;100357.66;;;35.51;41.40
54850;BME280;47660;51.334;12.396;2023-06-22T09:35:41;100343.25;;;36.35;39.94
54850;BME280;47660;51.334;12.396;2023-06-22T09:38:07;100353.94;;;36.11;40.37
54850;BME280;47660;51.334;12.396;2023-06-22T09:40:32;100355.94;;;35.83;40.39
54850;BME280;47660;51.334;12.396;2023-06-22T09:43:02;100349.84;;;36.24;38.99
54850;BME280;47660;51.334;12.396;2023-06-22T09:45:28;100344.34;;;35.86;40.17
54850;BME280;47660;51.334;12.396;2023-06-22T09:47:53;100333.50;;;37.27;38.08
54850;BME280;47660;51.334;12.396;2023-06-22T09:50:19;100333.22;;;37.24;37.98
54850;BME280;47660;51.334;12.396;2023-06-22T09:52:44;100336.81;;;37.14;37.81
54850;BME280;47660;51.334;12.396;2023-06-22T09:55:15;100340.97;;;37.16;37.54
54850;BME280;47660;51.334;12.396;2023-06-22T09:57:41;100338.00;;;36.39;38.36
54850;BME280;47660;51.334;12.396;2023-06-22T10:00:07;100331.28;;;37.19;37.93
54850;BME280;47660;51.334;12.396;2023-06-22T10:02:37;100334.31;;;37.17;37.26
54850;BME280;47660;51.334;12.396;2023-06-22T10:05:10;100321.16;;;38.22;35.74
54850;BME280;47660;51.334;12.396;2023-06-22T10:07:35;100321.03;;;37.20;36.44
54850;BME280;47660;51.334;12.396;2023-06-22T10:10:06;100329.34;;;37.40;37.03
54850;BME280;47660;51.334;12.396;2023-06-22T10:12:31;100316.88;;;37.33;37.20
54850;BME280;47660;51.334;12.396;2023-06-22T10:14:57;100321.28;;;37.03;37.38
54850;BME280;47660;51.334;12.396;2023-06-22T10:17:22;100309.56;;;36.59;37.72
54850;BME280;47660;51.334;12.396;2023-06-22T10:19:52;100313.28;;;35.68;38.36
54850;BME280;47660;51.334;12.396;2023-06-22T10:22:18;100307.06;;;36.63;37.27
54850;BME280;47660;51.334;12.396;2023-06-22T10:24:43;100302.75;;;37.08;36.32
54850;BME280;47660;51.334;12.396;2023-06-22T10:27:10;100303.00;;;37.43;36.25
54850;BME280;47660;51.334;12.396;2023-06-22T10:29:41;100305.22;;;36.99;37.28
54850;BME280;47660;51.334;12.396;2023-06-22T10:32:09;100297.41;;;36.60;37.62
54850;BME280;47660;51.334;12.396;2023-06-22T10:34:35;100303.25;;;37.72;35.86
54850;BME280;47660;51.334;12.396;2023-06-22T10:37:02;100294.06;;;36.58;36.67
54850;BME280;47660;51.334;12.396;2023-06-22T10:39:28;100292.44;;;36.93;36.49
54850;BME280;47660;51.334;12.396;2023-06-22T10:41:54;100287.09;;;38.06;35.55
54850;BME280;47660;51.334;12.396;2023-06-22T10:44:23;100285.56;;;37.48;35.06
54850;BME280;47660;51.334;12.396;2023-06-22T10:46:49;100281.09;;;36.90;35.44
54850;BME280;47660;51.334;12.396;2023-06-22T10:49:14;100273.94;;;38.27;34.05
54850;BME280;47660;51.334;12.396;2023-06-22T10:51:39;100270.94;;;38.13;34.21
54850;BME280;47660;51.334;12.396;2023-06-22T10:54:07;100272.78;;;37.31;35.49
54850;BME280;47660;51.334;12.396;2023-06-22T10:56:32;100278.06;;;36.96;36.18
54850;BME280;47660;51.334;12.396;2023-06-22T10:59:00;100278.06;;;37.07;35.87
54850;BME280;47660;51.334;12.396;2023-06-22T11:01:27;100267.41;;;36.41;36.64
54850;BME280;47660;51.334;12.396;2023-06-22T11:03:53;100257.91;;;38.13;35.10
54850;BME280;47660;51.334;12.396;2023-06-22T11:06:18;100268.63;;;37.39;34.92
54850;BME280;47660;51.334;12.396;2023-06-22T11:08:44;100262.41;;;37.88;35.15
54850;BME280;47660;51.334;12.396;2023-06-22T11:11:13;100250.09;;;38.66;34.15
54850;BME280;47660;51.334;12.396;2023-06-22T11:13:38;100256.88;;;37.83;34.70
54850;BME280;47660;51.334;12.396;2023-06-22T11:16:03;100252.03;;;37.13;36.19
54850;BME280;47660;51.334;12.396;2023-06-22T11:18:31;100251.63;;;37.92;35.17
54850;BME280;47660;51.334;12.396;2023-06-22T11:20:56;100263.63;;;37.51;35.16
54850;BME280;47660;51.334;12.396;2023-06-22T11:23:24;100245.19;;;38.02;34.58
54850;BME280;47660;51.334;12.396;2023-06-22T11:25:51;100242.81;;;37.64;35.15
54850;BME280;47660;51.334;12.396;2023-06-22T11:28:17;100249.53;;;37.27;35.55
54850;BME280;47660;51.334;12.396;2023-06-22T11:30:42;100235.56;;;37.73;34.91
54850;BME280;47660;51.334;12.396;2023-06-22T11:33:10;100232.38;;;38.11;34.88
54850;BME280;47660;51.334;12.396;2023-06-22T11:35:46;100234.03;;;39.27;33.89
54850;BME280;47660;51.334;12.396;2023-06-22T11:38:12;100231.28;;;38.57;34.00
54850;BME280;47660;51.334;12.396;2023-06-22T11:40:37;100240.66;;;37.45;35.72
54850;BME280;47660;51.334;12.396;2023-06-22T11:43:03;100222.53;;;38.40;34.56
54850;BME280;47660;51.334;12.396;2023-06-22T11:45:31;100226.22;;;39.58;34.08
54850;BME280;47660;51.334;12.396;2023-06-22T11:47:57;100230.31;;;37.67;36.19
54850;BME280;47660;51.334;12.396;2023-06-22T11:50:22;100222.41;;;38.05;36.16
54850;BME280;47660;51.334;12.396;2023-06-22T11:52:48;100220.59;;;38.75;34.88
54850;BME280;47660;51.334;12.396;2023-06-22T11:55:15;100223.94;;;37.66;35.71
54850;BME280;47660;51.334;12.396;2023-06-22T11:57:57;100217.94;;;38.94;34.12
54850;BME280;47660;51.334;12.396;2023-06-22T12:00:25;100220.34;;;38.26;35.11
54850;BME280;47660;51.334;12.396;2023-06-22T12:02:55;100211.84;;;38.12;35.67
54850;BME280;47660;51.334;12.396;2023-06-22T12:05:26;100201.44;;;38.33;35.64
54850;BME280;47660;51.334;12.396;2023-06-22T12:07:54;100186.81;;;39.94;32.58
54850;BME280;47660;51.334;12.396;2023-06-22T12:10:24;100191.78;;;40.55;32.36
54850;BME280;47660;51.334;12.396;2023-06-22T12:12:50;100193.00;;;37.17;35.92
54850;BME280;47660;51.334;12.396;2023-06-22T12:15:17;100179.28;;;39.51;34.05
54850;BME280;47660;51.334;12.396;2023-06-22T12:17:43;100178.66;;;38.76;34.16
54850;BME280;47660;51.334;12.396;2023-06-22T12:20:09;100171.28;;;39.20;33.23
54850;BME280;47660;51.334;12.396;2023-06-22T12:22:35;100171.47;;;39.78;32.80
54850;BME280;47660;51.334;12.396;2023-06-22T12:25:01;100173.50;;;39.48;33.13
54850;BME280;47660;51.334;12.396;2023-06-22T12:27:29;100162.16;;;41.39;30.63
54850;BME280;47660;51.334;12.396;2023-06-22T12:29:55;100164.63;;;39.89;31.61
54850;BME280;47660;51.334;12.396;2023-06-22T12:32:21;100165.03;;;41.34;30.70
54850;BME280;47660;51.334;12.396;2023-06-22T12:34:46;100164.97;;;40.59;31.08
54850;BME280;47660;51.334;12.396;2023-06-22T12:37:14;100169.38;;;40.08;32.26
54850;BME280;47660;51.334;12.396;2023-06-22T12:39:42;100154.72;;;40.40;31.83
54850;BME280;47660;51.334;12.396;2023-06-22T12:42:10;100148.28;;;39.15;33.52
54850;BME280;47660;51.334;12.396;2023-06-22T12:44:39;100134.53;;;40.30;32.00
54850;BME280;47660;51.334;12.396;2023-06-22T12:47:05;100138.63;;;39.56;32.71
54850;BME280;47660;51.334;12.396;2023-06-22T12:49:31;100130.75;;;41.62;30.02
54850;BME280;47660;51.334;12.396;2023-06-22T12:51:56;100124.47;;;41.56;30.26
54850;BME280;47660;51.334;12.396;2023-06-22T12:54:22;100123.50;;;40.58;31.35
54850;BME280;47660;51.334;12.396;2023-06-22T12:56:47;100127.47;;;41.32;30.84
54850;BME280;47660;51.334;12.396;2023-06-22T12:59:13;100125.97;;;40.07;31.67
54850;BME280;47660;51.334;12.396;2023-06-22T13:01:42;100111.78;;;41.86;29.87
54850;BME280;47660;51.334;12.396;2023-06-22T13:04:09;100116.50;;;41.63;30.96